createdAt,value
2022-10-05T00:01:30.926Z,71.53
2022-10-05T00:04:11.106Z,71.59
2022-10-05T00:06:39.650Z,71.50
2022-10-05T00:09:13.987Z,71.50
2022-10-05T00:11:42.715Z,71.58
2022-10-05T00:14:17.437Z,71.45
2022-10-05T00:16:46.810Z,71.34
2022-10-05T00:19:26.587Z,71.55
2022-10-05T00:21:58.614Z,71.59
2022-10-05T00:24:26.880Z,71.66
2022-10-05T00:27:01.098Z,71.66
2022-10-05T00:29:29.430Z,71.59
2022-10-05T00:31:59.283Z,71.57
2022-10-05T00:34:27.624Z,71.67
2022-10-05T00:36:59.993Z,71.55
2022-10-05T00:39:29.632Z,71.45
2022-10-05T00:42:23.041Z,71.39
2022-10-05T00:44:55.376Z,71.33
2022-10-05T00:47:35.951Z,71.25
2022-10-05T00:50:29.569Z,71.18
2022-10-05T00:53:06.085Z,71.44
2022-10-05T00:55:48.855Z,71.58
2022-10-05T00:58:28.449Z,71.58
2022-10-05T01:01:09.374Z,71.52
2022-10-05T01:03:50.276Z,71.58
2022-10-05T01:06:25.537Z,71.83
2022-10-05T01:09:05.911Z,71.85
2022-10-05T01:11:42.875Z,71.75
2022-10-05T01:14:19.024Z,71.86
2022-10-05T01:16:56.198Z,71.80
2022-10-05T01:19:43.125Z,71.82
2022-10-05T01:22:29.945Z,71.64
2022-10-05T01:25:17.761Z,71.70
2022-10-05T01:27:57.740Z,71.76
2022-10-05T01:30:26.778Z,71.83
2022-10-05T01:33:06.669Z,71.74
2022-10-05T01:35:49.813Z,71.82
2022-10-05T01:38:32.627Z,71.78
2022-10-05T01:41:10.217Z,72.00
2022-10-05T01:43:45.812Z,71.74
2022-10-05T01:46:25.436Z,71.82
2022-10-05T01:49:17.295Z,71.65
2022-10-05T01:51:58.491Z,71.64
2022-10-05T01:54:39.574Z,71.67
2022-10-05T01:57:16.970Z,71.85
2022-10-05T02:00:01.228Z,71.98
2022-10-05T02:02:34.976Z,72.00
2022-10-05T02:05:10.064Z,72.00
2022-10-05T02:07:43.473Z,72.04
2022-10-05T02:10:18.623Z,71.80
2022-10-05T02:12:51.194Z,71.71
2022-10-05T02:15:25.590Z,71.68
2022-10-05T02:18:01.841Z,71.57
2022-10-05T02:20:34.542Z,71.65
2022-10-05T02:23:09.349Z,71.75
2022-10-05T02:25:40.489Z,71.80
2022-10-05T02:28:13.809Z,71.76
2022-10-05T02:30:48.613Z,71.56
2022-10-05T02:33:25.025Z,71.53
2022-10-05T02:35:55.879Z,71.51
2022-10-05T02:38:35.662Z,71.66
2022-10-05T02:41:12.212Z,71.72
2022-10-05T02:43:48.081Z,71.69
2022-10-05T02:46:28.133Z,71.71
2022-10-05T02:49:09.003Z,71.72
2022-10-05T02:51:48.977Z,71.71
2022-10-05T02:54:25.872Z,71.80
2022-10-05T02:57:04.195Z,71.78
2022-10-05T02:59:37.857Z,71.94
2022-10-05T03:02:15.861Z,71.95
2022-10-05T03:04:55.051Z,71.77
2022-10-05T03:07:29.079Z,71.80
2022-10-05T03:10:05.218Z,71.82
2022-10-05T03:12:54.338Z,71.72
2022-10-05T03:15:48.241Z,71.81
2022-10-05T03:18:27.407Z,71.78
2022-10-05T03:21:11.631Z,72.00
2022-10-05T03:24:02.003Z,71.96
2022-10-05T03:26:40.541Z,71.92
2022-10-05T03:29:29.261Z,71.72
2022-10-05T03:32:06.851Z,71.72
2022-10-05T03:34:39.921Z,71.66
2022-10-05T03:37:15.435Z,71.63
2022-10-05T03:39:51.550Z,71.95
2022-10-05T03:42:30.166Z,72.09
2022-10-05T03:45:04.790Z,72.13
2022-10-05T03:47:43.730Z,72.07
2022-10-05T03:50:28.878Z,71.90
2022-10-05T03:53:03.236Z,71.78
2022-10-05T03:55:41.531Z,71.84
2022-10-05T03:58:17.081Z,71.90
2022-10-05T04:00:52.557Z,71.95
2022-10-05T04:03:28.729Z,71.92
2022-10-05T04:06:03.435Z,72.06
2022-10-05T04:08:40.037Z,72.06
2022-10-05T04:11:15.634Z,72.03
2022-10-05T04:13:49.801Z,72.06
2022-10-05T04:16:34.576Z,71.90
2022-10-05T04:19:10.380Z,71.99
2022-10-05T04:21:46.029Z,72.02
2022-10-05T04:24:22.174Z,72.00
2022-10-05T04:26:57.723Z,72.01
2022-10-05T04:29:34.605Z,72.14
2022-10-05T04:32:27.892Z,72.19
2022-10-05T04:35:18.782Z,72.20
2022-10-05T04:37:57.650Z,72.26
2022-10-05T04:40:44.511Z,72.27
2022-10-05T04:43:19.672Z,72.40
2022-10-05T04:46:06.826Z,72.22
2022-10-05T04:49:09.228Z,72.28
2022-10-05T04:51:51.400Z,72.34
2022-10-05T04:54:34.328Z,72.36
2022-10-05T04:57:08.172Z,72.33
2022-10-05T05:00:06.142Z,72.31
2022-10-05T05:02:49.584Z,72.33
2022-10-05T05:05:31.080Z,72.40
2022-10-05T05:08:18.533Z,72.37
2022-10-05T05:11:06.943Z,72.26
2022-10-05T05:14:06.875Z,72.32
2022-10-05T05:16:39.840Z,72.36
2022-10-05T05:19:23.328Z,72.46
2022-10-05T05:22:03.135Z,72.58
2022-10-05T05:24:55.302Z,72.56
2022-10-05T05:27:40.544Z,72.52
2022-10-05T05:30:19.576Z,72.41
2022-10-05T05:33:00.924Z,72.46
2022-10-05T05:35:58.582Z,72.38
2022-10-05T05:38:34.896Z,72.36
2022-10-05T05:41:11.902Z,72.37
2022-10-05T05:44:03.418Z,72.42
2022-10-05T05:47:02.197Z,72.41
2022-10-05T05:49:33.433Z,72.31
2022-10-05T05:52:10.402Z,72.36
2022-10-05T05:54:42.094Z,72.49
2022-10-05T05:57:16.698Z,72.49
2022-10-05T05:59:58.568Z,72.52
2022-10-05T06:02:32.423Z,72.59
2022-10-05T06:05:10.651Z,72.65
2022-10-05T06:07:39.877Z,72.62
2022-10-05T06:10:17.308Z,72.56
2022-10-05T06:13:01.717Z,72.71
2022-10-05T06:15:37.415Z,72.71
2022-10-05T06:18:12.209Z,72.74
2022-10-05T06:20:44.251Z,72.77
2022-10-05T06:23:17.111Z,72.69
2022-10-05T06:25:55.624Z,72.68
2022-10-05T06:28:26.858Z,72.61
2022-10-05T06:31:06.580Z,72.54
2022-10-05T06:33:46.882Z,72.57
2022-10-05T06:36:31.895Z,72.69
2022-10-05T06:39:26.232Z,72.72
2022-10-05T06:42:08.574Z,72.76
2022-10-05T06:45:07.613Z,72.74
2022-10-05T06:48:04.281Z,72.60
2022-10-05T06:51:03.625Z,72.69
2022-10-05T06:53:56.313Z,72.80
2022-10-05T06:56:30.655Z,72.80
2022-10-05T06:59:07.430Z,72.74
2022-10-05T07:01:48.264Z,72.72
2022-10-05T07:04:36.889Z,72.85
2022-10-05T07:07:16.946Z,72.64
2022-10-05T07:10:00.231Z,72.59
2022-10-05T07:12:44.829Z,72.57
2022-10-05T07:15:42.284Z,72.51
2022-10-05T07:18:31.911Z,72.47
2022-10-05T07:21:04.560Z,72.57
2022-10-05T07:23:52.434Z,72.58
2022-10-05T07:26:29.021Z,72.62
2022-10-05T07:29:18.809Z,72.70
2022-10-05T07:31:57.624Z,72.59
2022-10-05T07:34:34.691Z,72.60
2022-10-05T07:37:25.507Z,72.88
2022-10-05T07:40:04.861Z,72.94
2022-10-05T07:42:52.807Z,72.74
2022-10-05T07:45:32.574Z,72.85
2022-10-05T07:48:12.415Z,72.86
2022-10-05T07:50:52.556Z,72.65
2022-10-05T07:53:25.539Z,72.54
2022-10-05T07:55:57.203Z,72.56
2022-10-05T07:58:30.774Z,72.64
2022-10-05T08:01:10.611Z,72.27
2022-10-05T08:03:49.372Z,72.43
2022-10-05T08:06:32.311Z,72.50
2022-10-05T08:09:10.481Z,72.50
2022-10-05T08:11:47.472Z,72.47
2022-10-05T08:14:24.418Z,72.26
2022-10-05T08:16:57.514Z,72.43
2022-10-05T08:19:33.991Z,72.36
2022-10-05T08:22:06.568Z,72.34
2022-10-05T08:24:48.772Z,72.29
2022-10-05T08:27:25.417Z,72.21
2022-10-05T08:29:58.479Z,72.19
2022-10-05T08:32:31.545Z,72.04
2022-10-05T08:35:14.750Z,72.23
2022-10-05T08:37:45.728Z,72.03
2022-10-05T08:40:38.682Z,72.19
2022-10-05T08:43:16.408Z,71.94
2022-10-05T08:46:18.574Z,71.73
2022-10-05T08:49:10.618Z,71.82
2022-10-05T08:51:55.887Z,71.74
2022-10-05T08:54:38.084Z,71.80
2022-10-05T08:57:31.557Z,71.58
2022-10-05T09:00:10.122Z,71.83
2022-10-05T09:03:06.480Z,71.57
2022-10-05T09:06:11.285Z,71.58
2022-10-05T09:08:59.034Z,71.52
2022-10-05T09:11:36.237Z,71.45
2022-10-05T09:14:30.389Z,71.52
2022-10-05T09:17:22.436Z,71.16
2022-10-05T09:19:59.795Z,71.07
2022-10-05T09:22:42.686Z,71.30
2022-10-05T09:25:27.791Z,71.04
2022-10-05T09:28:04.760Z,71.01
2022-10-05T09:30:52.257Z,70.85
2022-10-05T09:33:51.281Z,70.85
2022-10-05T09:36:54.504Z,70.77
2022-10-05T09:40:01.641Z,70.67
2022-10-05T09:42:54.677Z,70.72
2022-10-05T09:45:41.915Z,70.62
2022-10-05T09:48:45.391Z,70.32
2022-10-05T09:51:54.860Z,70.54
2022-10-05T09:55:02.377Z,70.80
2022-10-05T09:58:13.790Z,70.50
2022-10-05T10:01:08.887Z,70.42
2022-10-05T10:04:24.174Z,70.36
2022-10-05T10:07:32.242Z,70.57
2022-10-05T10:10:23.464Z,70.30
2022-10-05T10:13:07.510Z,70.15
2022-10-05T10:16:03.517Z,70.07
2022-10-05T10:19:11.999Z,69.95
2022-10-05T10:22:20.690Z,70.13
2022-10-05T10:25:01.926Z,70.58
2022-10-05T10:27:53.827Z,70.75
2022-10-05T10:30:54.550Z,70.57
2022-10-05T10:34:09.928Z,70.63
2022-10-05T10:36:58.958Z,70.33
2022-10-05T10:39:44.815Z,69.93
2022-10-05T10:42:37.282Z,69.46
2022-10-05T10:45:19.174Z,69.25
2022-10-05T10:47:59.760Z,69.49
2022-10-05T10:51:04.091Z,69.62
2022-10-05T10:54:03.182Z,69.52
2022-10-05T10:56:41.603Z,69.39
2022-10-05T10:59:40.946Z,69.12
2022-10-05T11:02:27.284Z,68.97
2022-10-05T11:05:16.935Z,68.88
2022-10-05T11:08:13.125Z,68.71
2022-10-05T11:11:12.465Z,68.35
2022-10-05T11:14:05.541Z,68.26
2022-10-05T11:17:07.637Z,68.27
2022-10-05T11:20:06.437Z,68.32
2022-10-05T11:22:58.191Z,68.37
2022-10-05T11:26:01.046Z,68.04
2022-10-05T11:28:46.307Z,68.22
2022-10-05T11:31:47.091Z,68.13
2022-10-05T11:34:45.740Z,68.12
2022-10-05T11:37:48.555Z,68.17
2022-10-05T11:40:47.120Z,67.80
2022-10-05T11:43:37.776Z,67.57
2022-10-05T11:46:14.113Z,67.43
2022-10-05T11:48:54.932Z,67.27
2022-10-05T11:51:34.304Z,67.30
2022-10-05T11:54:20.386Z,67.12
2022-10-05T11:56:56.729Z,67.12
2022-10-05T11:59:34.239Z,67.19
2022-10-05T12:02:26.905Z,67.08
2022-10-05T12:05:03.178Z,67.10
2022-10-05T12:07:41.691Z,66.89
2022-10-05T12:10:30.637Z,66.96
2022-10-05T12:13:18.981Z,67.02
2022-10-05T12:15:54.180Z,67.00
2022-10-05T12:18:42.775Z,67.05
2022-10-05T12:21:15.396Z,66.95
2022-10-05T12:23:51.651Z,66.94
2022-10-05T12:26:26.143Z,66.97
2022-10-05T12:29:01.891Z,66.84
2022-10-05T12:31:41.581Z,66.74
2022-10-05T12:34:20.406Z,66.81
2022-10-05T12:37:06.962Z,66.77
2022-10-05T12:39:43.401Z,66.86
2022-10-05T12:42:25.872Z,66.87
2022-10-05T12:45:06.714Z,66.77
2022-10-05T12:47:53.741Z,66.78
2022-10-05T12:50:27.774Z,66.63
2022-10-05T12:53:13.900Z,66.68
2022-10-05T12:55:53.411Z,66.71
2022-10-05T12:58:33.118Z,66.78
2022-10-05T13:01:09.727Z,66.56
2022-10-05T13:03:42.746Z,66.57
2022-10-05T13:06:18.931Z,66.54
2022-10-05T13:08:58.092Z,66.52
2022-10-05T13:11:38.813Z,66.57
2022-10-05T13:14:25.486Z,66.38
2022-10-05T13:17:04.289Z,66.47
2022-10-05T13:19:39.619Z,66.30
2022-10-05T13:22:31.664Z,66.43
2022-10-05T13:25:18.375Z,66.28
2022-10-05T13:27:54.978Z,66.37
2022-10-05T13:30:23.482Z,66.50
2022-10-05T13:32:57.462Z,66.34
2022-10-05T13:35:40.265Z,66.40
2022-10-05T13:38:21.002Z,66.32
2022-10-05T13:41:01.794Z,66.28
2022-10-05T13:43:39.699Z,66.27
2022-10-05T13:46:18.732Z,66.33
2022-10-05T13:49:00.907Z,66.27
2022-10-05T13:51:39.929Z,66.30
2022-10-05T13:54:20.581Z,66.23
2022-10-05T13:56:54.371Z,66.12
2022-10-05T13:59:32.765Z,66.25
2022-10-05T14:02:07.961Z,66.13
2022-10-05T14:04:46.662Z,66.21
2022-10-05T14:07:29.789Z,66.13
2022-10-05T14:09:59.083Z,66.18
2022-10-05T14:12:40.349Z,65.98
2022-10-05T14:15:22.090Z,66.07
2022-10-05T14:17:52.333Z,66.01
2022-10-05T14:20:27.798Z,66.28
2022-10-05T14:23:01.433Z,66.12
2022-10-05T14:25:30.923Z,66.05
2022-10-05T14:28:03.373Z,66.31
2022-10-05T14:30:32.718Z,66.27
2022-10-05T14:33:15.040Z,66.35
2022-10-05T14:35:49.166Z,66.27
2022-10-05T14:38:21.031Z,66.31
2022-10-05T14:41:05.395Z,66.30
2022-10-05T14:43:35.202Z,66.18
2022-10-05T14:46:28.153Z,66.10
2022-10-05T14:49:20.575Z,66.22
2022-10-05T14:51:49.656Z,66.28
2022-10-05T14:54:34.617Z,66.23
2022-10-05T14:57:22.788Z,66.15
2022-10-05T15:00:04.706Z,66.15
2022-10-05T15:02:52.223Z,66.24
2022-10-05T15:05:30.810Z,66.39
2022-10-05T15:08:08.756Z,66.51
2022-10-05T15:10:40.407Z,66.45
2022-10-05T15:13:18.204Z,66.28
2022-10-05T15:15:54.142Z,66.36
2022-10-05T15:18:40.708Z,66.19
2022-10-05T15:21:29.907Z,66.48
2022-10-05T15:24:04.742Z,66.23
2022-10-05T15:26:46.277Z,66.27
2022-10-05T15:29:27.001Z,66.55
2022-10-05T15:32:07.146Z,66.43
2022-10-05T15:34:41.165Z,66.42
2022-10-05T15:37:16.550Z,66.40
2022-10-05T15:39:53.005Z,66.44
2022-10-05T15:42:33.058Z,66.55
2022-10-05T15:45:07.242Z,66.75
2022-10-05T15:47:46.972Z,66.52
2022-10-05T15:50:22.873Z,66.75
2022-10-05T15:52:56.285Z,66.40
2022-10-05T15:55:47.094Z,66.50
2022-10-05T15:58:46.292Z,66.62
2022-10-05T16:01:18.078Z,66.47
2022-10-05T16:04:02.668Z,66.52
2022-10-05T16:07:01.459Z,66.50
2022-10-05T16:09:44.192Z,66.69
2022-10-05T16:12:33.836Z,66.91
2022-10-05T16:15:19.656Z,66.79
2022-10-05T16:18:00.310Z,66.83
2022-10-05T16:20:41.386Z,66.60
2022-10-05T16:23:23.930Z,66.85
2022-10-05T16:26:03.505Z,66.73
2022-10-05T16:28:45.709Z,67.00
2022-10-05T16:31:21.327Z,66.98
2022-10-05T16:34:06.059Z,67.05
2022-10-05T16:36:50.172Z,66.96
2022-10-05T16:39:23.121Z,66.91
2022-10-05T16:41:58.263Z,66.96
2022-10-05T16:44:38.351Z,66.91
2022-10-05T16:47:40.713Z,67.16
2022-10-05T16:53:12.482Z,67.04
2022-10-05T16:55:44.276Z,67.29
2022-10-05T16:58:21.276Z,67.10
2022-10-05T17:01:11.730Z,67.36
2022-10-05T17:04:02.771Z,67.23
2022-10-05T17:06:53.435Z,67.28
2022-10-05T17:09:45.209Z,67.25
2022-10-05T17:12:32.459Z,67.16
2022-10-05T17:15:14.502Z,67.22
2022-10-05T17:17:58.044Z,67.44
2022-10-05T17:20:42.890Z,67.40
2022-10-05T17:23:31.498Z,67.53
2022-10-05T17:26:16.061Z,67.36
2022-10-05T17:29:08.529Z,67.38
2022-10-05T17:32:10.479Z,67.27
2022-10-05T17:35:00.276Z,67.65
2022-10-05T17:37:36.937Z,67.59
2022-10-05T17:40:31.551Z,67.40
2022-10-05T17:43:02.214Z,67.56
2022-10-05T17:46:05.581Z,67.65
2022-10-05T17:48:40.520Z,67.50
2022-10-05T17:51:56.578Z,67.69
2022-10-05T17:54:47.109Z,67.69
2022-10-05T17:57:27.323Z,67.42
2022-10-05T18:00:02.057Z,67.55
2022-10-05T18:02:42.731Z,67.44
2022-10-05T18:05:27.224Z,67.76
2022-10-05T18:08:33.199Z,67.65
2022-10-05T18:11:16.825Z,67.64
2022-10-05T18:13:49.386Z,67.80
2022-10-05T18:16:50.082Z,67.91
2022-10-05T18:19:21.711Z,67.60
2022-10-05T18:22:26.280Z,67.57
2022-10-05T18:25:05.303Z,67.54
2022-10-05T18:28:00.280Z,67.76
2022-10-05T18:30:36.426Z,67.99
2022-10-05T18:33:32.954Z,67.97
2022-10-05T18:36:26.951Z,67.79
2022-10-05T18:39:03.105Z,67.84
2022-10-05T18:41:47.282Z,67.97
2022-10-05T18:44:41.709Z,67.88
2022-10-05T18:47:18.108Z,67.85
2022-10-05T18:50:00.428Z,67.97
2022-10-05T18:52:43.534Z,67.84
2022-10-05T18:55:19.043Z,67.77
2022-10-05T18:58:16.370Z,67.90
2022-10-05T19:01:13.603Z,68.15
2022-10-05T19:03:51.408Z,67.97
2022-10-05T19:17:24.152Z,67.77
2022-10-05T19:20:12.604Z,68.16
2022-10-05T19:22:53.591Z,68.14
2022-10-05T19:25:36.585Z,67.85
2022-10-05T19:28:18.470Z,67.95
2022-10-05T19:30:59.878Z,68.18
2022-10-05T19:33:41.315Z,67.88
2022-10-05T19:36:25.335Z,68.03
2022-10-05T19:39:03.587Z,68.14
2022-10-05T19:41:51.444Z,67.92
2022-10-05T19:44:29.876Z,68.03
2022-10-05T19:47:05.626Z,67.85
2022-10-05T19:49:49.685Z,68.05
2022-10-05T19:52:24.244Z,67.98
2022-10-05T19:55:15.032Z,68.12
2022-10-05T19:57:48.708Z,68.11
2022-10-05T20:00:24.887Z,67.97
2022-10-05T20:03:10.053Z,68.09
2022-10-05T20:05:39.229Z,68.06
2022-10-05T20:08:11.821Z,68.03
2022-10-05T20:10:40.598Z,68.24
2022-10-05T20:13:21.507Z,68.20
2022-10-05T20:16:26.517Z,68.11
2022-10-05T20:19:13.186Z,67.90
2022-10-05T20:21:54.048Z,67.93
2022-10-05T20:24:29.113Z,67.95
2022-10-05T20:27:05.128Z,68.12
2022-10-05T20:29:36.338Z,68.09
2022-10-05T20:32:08.652Z,68.07
2022-10-05T20:34:40.777Z,68.05
2022-10-05T20:37:10.951Z,68.22
2022-10-05T20:39:40.207Z,68.21
2022-10-05T20:42:09.699Z,68.02
2022-10-05T20:44:38.299Z,68.08
2022-10-05T20:47:09.390Z,67.99
2022-10-05T20:49:40.753Z,68.17
2022-10-05T20:52:11.428Z,67.88
2022-10-05T20:54:39.914Z,67.94
2022-10-05T20:57:09.261Z,68.08
2022-10-05T20:59:38.110Z,68.09
2022-10-05T21:02:07.155Z,68.37
2022-10-05T21:04:40.607Z,68.20
2022-10-05T21:07:10.670Z,68.21
2022-10-05T21:09:42.263Z,68.09
2022-10-05T21:12:11.585Z,68.37
2022-10-05T21:14:42.553Z,67.98
2022-10-05T21:17:12.874Z,67.93
2022-10-05T21:19:43.040Z,68.19
2022-10-05T21:22:11.324Z,68.29
2022-10-05T21:24:40.612Z,68.14
2022-10-05T21:27:10.497Z,68.36
2022-10-05T21:29:40.604Z,68.39
2022-10-05T21:32:10.956Z,68.32
2022-10-05T21:34:39.713Z,68.26
2022-10-05T21:37:08.415Z,68.26
2022-10-05T21:39:38.359Z,68.06
2022-10-05T21:42:06.812Z,68.21
2022-10-05T21:44:35.593Z,68.45
2022-10-05T21:47:06.351Z,68.50
2022-10-05T21:49:35.739Z,68.40
2022-10-05T21:52:05.117Z,68.47
2022-10-05T21:54:34.560Z,68.41
2022-10-05T21:57:05.817Z,68.35
2022-10-05T21:59:34.809Z,68.32
2022-10-05T22:02:04.280Z,68.23
2022-10-05T22:04:34.109Z,68.22
2022-10-05T22:07:17.979Z,68.42
2022-10-05T22:09:47.753Z,68.26
2022-10-05T22:12:18.794Z,68.41
2022-10-05T22:14:47.185Z,68.28
2022-10-05T22:17:22.547Z,68.34
2022-10-05T22:19:51.243Z,68.28
2022-10-05T22:22:20.132Z,68.11
2022-10-05T22:24:48.652Z,68.17
2022-10-05T22:27:18.268Z,68.25
2022-10-05T22:29:47.903Z,68.25
2022-10-05T22:32:19.761Z,68.36
2022-10-05T22:34:51.458Z,68.48
2022-10-05T22:37:20.165Z,68.41
2022-10-05T22:39:48.655Z,68.62
2022-10-05T22:42:16.872Z,68.35
2022-10-05T22:44:45.462Z,68.54
2022-10-05T22:47:14.223Z,68.46
2022-10-05T22:49:42.437Z,68.53
2022-10-05T22:52:10.881Z,68.59
2022-10-05T22:54:39.170Z,68.75
2022-10-05T22:57:07.383Z,68.68
2022-10-05T22:59:36.028Z,68.69
2022-10-05T23:02:04.826Z,68.62
2022-10-05T23:04:33.181Z,68.76
2022-10-05T23:07:02.720Z,68.72
2022-10-05T23:09:30.974Z,68.66
2022-10-05T23:11:59.224Z,68.70
2022-10-05T23:14:30.193Z,68.72
2022-10-05T23:16:59.958Z,68.80
2022-10-05T23:19:28.539Z,68.79
2022-10-05T23:21:56.773Z,68.78
2022-10-05T23:24:25.102Z,68.82
2022-10-05T23:26:55.184Z,68.71
2022-10-05T23:29:23.536Z,68.89
2022-10-05T23:31:52.330Z,68.73
2022-10-05T23:34:20.815Z,68.71
2022-10-05T23:36:49.154Z,68.74
2022-10-05T23:39:17.304Z,68.93
2022-10-05T23:41:45.745Z,68.77
2022-10-05T23:44:14.324Z,68.98
2022-10-05T23:46:42.608Z,68.83
2022-10-05T23:49:11.086Z,68.88
2022-10-05T23:51:39.566Z,69.02
2022-10-05T23:54:07.951Z,69.00
2022-10-05T23:56:36.567Z,69.05
2022-10-05T23:59:05.216Z,68.99
